Asbury, Illinois
Current Conditions -  °F | °C
As of 1:35 PM on Friday 24 Oct 2014 (Local Time) from KCUL Reporting Station
Scattered Clouds Scattered Clouds  
Wind Chill: 21°   Ceiling: Unl
Heat Index: 21°   Visibility: 10mi
Dew Point: 13°   Wind: 3mph
Humidity: 57%   Direction: 200°SSW
Pressure: 30.07"   Gusts: NA
Location:  37.8866°N, 88.266°W
Report Text: KCUL 241835Z AUTO 20003KT 10SM SCT032 SCT090 22/13 A3007 RMK AO2 T02150127
Loading
Personal Weather Stations






























Interactive Weather Map
Tropical Storm Tracking
New forecast layout! Learn more

10-Day Weather Forecast

Advertisements
Track Severe Weather on mobile